sensor_id;sensor_type;location;lat;lon;timestamp;temperature;humidity
16728;DHT22;8482;54.396;18.590;2023-03-04T00:02:00;5.90;99.90
16728;DHT22;8482;54.396;18.590;2023-03-04T00:04:26;6.00;99.90
16728;DHT22;8482;54.396;18.590;2023-03-04T00:06:52;6.00;99.90
16728;DHT22;8482;54.396;18.590;2023-03-04T00:09:18;6.00;99.90
16728;DHT22;8482;54.396;18.590;2023-03-04T00:11:44;6.00;99.90
16728;DHT22;8482;54.396;18.590;2023-03-04T00:14:10;6.00;99.90
16728;DHT22;8482;54.396;18.590;2023-03-04T00:16:35;6.10;99.90
16728;DHT22;8482;54.396;18.590;2023-03-04T00:19:01;6.10;99.90
16728;DHT22;8482;54.396;18.590;2023-03-04T00:21:27;6.10;99.90
16728;DHT22;8482;54.396;18.590;2023-03-04T00:23:53;6.10;99.90
16728;DHT22;8482;54.396;18.590;2023-03-04T00:26:19;6.20;99.90
16728;DHT22;8482;54.396;18.590;2023-03-04T00:28:45;6.20;99.90
16728;DHT22;8482;54.396;18.590;2023-03-04T00:31:11;6.20;99.90
16728;DHT22;8482;54.396;18.590;2023-03-04T00:33:37;6.20;99.90
16728;DHT22;8482;54.396;18.590;2023-03-04T00:36:05;6.20;99.90
16728;DHT22;8482;54.396;18.590;2023-03-04T00:38:31;6.20;99.90
16728;DHT22;8482;54.396;18.590;2023-03-04T00:40:57;6.20;99.90
16728;DHT22;8482;54.396;18.590;2023-03-04T00:43:23;6.20;99.90
16728;DHT22;8482;54.396;18.590;2023-03-04T00:45:48;6.20;99.90
16728;DHT22;8482;54.396;18.590;2023-03-04T00:48:14;6.30;99.90
16728;DHT22;8482;54.396;18.590;2023-03-04T00:50:41;6.30;99.90
16728;DHT22;8482;54.396;18.590;2023-03-04T00:53:08;6.30;99.90
16728;DHT22;8482;54.396;18.590;2023-03-04T00:55:35;6.30;99.90
16728;DHT22;8482;54.396;18.590;2023-03-04T00:58:01;6.30;99.90
16728;DHT22;8482;54.396;18.590;2023-03-04T01:00:27;6.30;99.90
16728;DHT22;8482;54.396;18.590;2023-03-04T01:02:53;6.30;99.90
16728;DHT22;8482;54.396;18.590;2023-03-04T01:05:19;6.30;99.90
16728;DHT22;8482;54.396;18.590;2023-03-04T01:07:45;6.30;99.90
16728;DHT22;8482;54.396;18.590;2023-03-04T01:10:12;6.20;99.90
16728;DHT22;8482;54.396;18.590;2023-03-04T01:12:40;6.30;99.90
16728;DHT22;8482;54.396;18.590;2023-03-04T01:15:07;6.30;99.90
16728;DHT22;8482;54.396;18.590;2023-03-04T01:17:35;6.30;99.90
16728;DHT22;8482;54.396;18.590;2023-03-04T01:20:01;6.30;99.90
16728;DHT22;8482;54.396;18.590;2023-03-04T01:22:28;6.30;99.90
16728;DHT22;8482;54.396;18.590;2023-03-04T01:24:54;6.30;99.90
16728;DHT22;8482;54.396;18.590;2023-03-04T01:27:20;6.30;99.90
16728;DHT22;8482;54.396;18.590;2023-03-04T01:29:46;6.30;99.90
16728;DHT22;8482;54.396;18.590;2023-03-04T01:32:12;6.30;99.90
16728;DHT22;8482;54.396;18.590;2023-03-04T01:34:37;6.30;99.90
16728;DHT22;8482;54.396;18.590;2023-03-04T01:37:03;6.30;99.90
16728;DHT22;8482;54.396;18.590;2023-03-04T01:39:29;6.30;99.90
16728;DHT22;8482;54.396;18.590;2023-03-04T01:41:55;6.30;99.90
16728;DHT22;8482;54.396;18.590;2023-03-04T01:44:21;6.30;99.90
16728;DHT22;8482;54.396;18.590;2023-03-04T01:46:51;6.30;99.90
16728;DHT22;8482;54.396;18.590;2023-03-04T01:49:19;6.30;99.90
16728;DHT22;8482;54.396;18.590;2023-03-04T01:51:51;6.30;99.90
16728;DHT22;8482;54.396;18.590;2023-03-04T01:54:20;6.30;99.90
16728;DHT22;8482;54.396;18.590;2023-03-04T01:56:49;6.30;99.90
16728;DHT22;8482;54.396;18.590;2023-03-04T01:59:17;6.30;99.90
16728;DHT22;8482;54.396;18.590;2023-03-04T02:01:49;6.30;99.90
16728;DHT22;8482;54.396;18.590;2023-03-04T02:04:32;6.30;99.90
16728;DHT22;8482;54.396;18.590;2023-03-04T02:07:00;6.30;99.90
16728;DHT22;8482;54.396;18.590;2023-03-04T02:09:28;6.30;99.90
16728;DHT22;8482;54.396;18.590;2023-03-04T02:11:55;6.30;99.90
16728;DHT22;8482;54.396;18.590;2023-03-04T02:14:22;6.30;99.90
16728;DHT22;8482;54.396;18.590;2023-03-04T02:16:49;6.20;99.90
16728;DHT22;8482;54.396;18.590;2023-03-04T02:19:39;6.30;99.90
16728;DHT22;8482;54.396;18.590;2023-03-04T02:22:05;6.30;99.90
16728;DHT22;8482;54.396;18.590;2023-03-04T02:24:40;6.30;99.90
16728;DHT22;8482;54.396;18.590;2023-03-04T02:27:12;6.20;99.90
16728;DHT22;8482;54.396;18.590;2023-03-04T02:29:37;6.20;99.90
16728;DHT22;8482;54.396;18.590;2023-03-04T02:32:04;6.20;99.90
16728;DHT22;8482;54.396;18.590;2023-03-04T02:34:33;6.20;99.90
16728;DHT22;8482;54.396;18.590;2023-03-04T02:37:01;6.20;99.90
16728;DHT22;8482;54.396;18.590;2023-03-04T02:39:38;6.20;99.90
16728;DHT22;8482;54.396;18.590;2023-03-04T02:42:06;6.10;99.90
16728;DHT22;8482;54.396;18.590;2023-03-04T02:44:38;6.10;99.90
16728;DHT22;8482;54.396;18.590;2023-03-04T02:47:09;6.10;99.90
16728;DHT22;8482;54.396;18.590;2023-03-04T02:49:37;6.00;99.90
16728;DHT22;8482;54.396;18.590;2023-03-04T02:52:13;6.10;99.90
16728;DHT22;8482;54.396;18.590;2023-03-04T02:54:49;6.00;99.90
16728;DHT22;8482;54.396;18.590;2023-03-04T02:57:14;6.00;99.90
16728;DHT22;8482;54.396;18.590;2023-03-04T02:59:41;6.00;99.90
16728;DHT22;8482;54.396;18.590;2023-03-04T03:02:08;6.00;99.90
16728;DHT22;8482;54.396;18.590;2023-03-04T03:04:36;6.00;99.90
16728;DHT22;8482;54.396;18.590;2023-03-04T03:07:03;6.00;99.90
16728;DHT22;8482;54.396;18.590;2023-03-04T03:09:30;6.00;99.90
16728;DHT22;8482;54.396;18.590;2023-03-04T03:11:56;6.00;99.90
16728;DHT22;8482;54.396;18.590;2023-03-04T03:14:22;6.00;99.90
16728;DHT22;8482;54.396;18.590;2023-03-04T03:16:48;5.90;99.90
16728;DHT22;8482;54.396;18.590;2023-03-04T03:19:13;5.90;99.90
16728;DHT22;8482;54.396;18.590;2023-03-04T03:21:39;5.90;99.90
16728;DHT22;8482;54.396;18.590;2023-03-04T03:24:05;5.90;99.90
16728;DHT22;8482;54.396;18.590;2023-03-04T03:26:31;5.90;99.90
16728;DHT22;8482;54.396;18.590;2023-03-04T03:28:57;5.80;99.90
16728;DHT22;8482;54.396;18.590;2023-03-04T03:31:23;5.90;99.90
16728;DHT22;8482;54.396;18.590;2023-03-04T03:33:48;5.80;99.90
16728;DHT22;8482;54.396;18.590;2023-03-04T03:36:14;5.80;99.90
16728;DHT22;8482;54.396;18.590;2023-03-04T03:38:40;5.80;99.90
16728;DHT22;8482;54.396;18.590;2023-03-04T03:41:06;5.80;99.90
16728;DHT22;8482;54.396;18.590;2023-03-04T03:43:32;5.80;99.90
16728;DHT22;8482;54.396;18.590;2023-03-04T03:45:58;5.80;99.90
16728;DHT22;8482;54.396;18.590;2023-03-04T03:48:24;5.80;99.90
16728;DHT22;8482;54.396;18.590;2023-03-04T03:50:50;5.80;99.90
16728;DHT22;8482;54.396;18.590;2023-03-04T03:53:16;5.80;99.90
16728;DHT22;8482;54.396;18.590;2023-03-04T03:55:41;5.80;99.90
16728;DHT22;8482;54.396;18.590;2023-03-04T03:58:07;5.70;99.90
16728;DHT22;8482;54.396;18.590;2023-03-04T04:00:33;5.70;99.90
16728;DHT22;8482;54.396;18.590;2023-03-04T04:02:59;5.70;99.90
16728;DHT22;8482;54.396;18.590;2023-03-04T04:05:26;5.70;99.90
16728;DHT22;8482;54.396;18.590;2023-03-04T04:07:52;5.70;99.90
16728;DHT22;8482;54.396;18.590;2023-03-04T04:10:18;5.70;99.90
16728;DHT22;8482;54.396;18.590;2023-03-04T04:12:44;5.70;99.90
16728;DHT22;8482;54.396;18.590;2023-03-04T04:15:11;5.70;99.90
16728;DHT22;8482;54.396;18.590;2023-03-04T04:17:37;5.70;99.90
16728;DHT22;8482;54.396;18.590;2023-03-04T04:20:06;5.60;99.90
16728;DHT22;8482;54.396;18.590;2023-03-04T04:22:32;5.60;99.90
16728;DHT22;8482;54.396;18.590;2023-03-04T04:24:58;5.60;99.90
16728;DHT22;8482;54.396;18.590;2023-03-04T04:27:24;5.60;99.90
16728;DHT22;8482;54.396;18.590;2023-03-04T04:29:50;5.60;99.90
16728;DHT22;8482;54.396;18.590;2023-03-04T04:32:16;5.60;99.90
16728;DHT22;8482;54.396;18.590;2023-03-04T04:34:42;5.50;99.90
16728;DHT22;8482;54.396;18.590;2023-03-04T04:37:07;5.50;99.90
16728;DHT22;8482;54.396;18.590;2023-03-04T04:39:34;5.60;99.90
16728;DHT22;8482;54.396;18.590;2023-03-04T04:42:00;5.50;99.90
16728;DHT22;8482;54.396;18.590;2023-03-04T04:44:25;5.50;99.90
16728;DHT22;8482;54.396;18.590;2023-03-04T04:46:51;5.50;99.90
16728;DHT22;8482;54.396;18.590;2023-03-04T04:49:17;5.50;99.90
16728;DHT22;8482;54.396;18.590;2023-03-04T04:51:43;5.50;99.90
16728;DHT22;8482;54.396;18.590;2023-03-04T04:54:09;5.50;99.90
16728;DHT22;8482;54.396;18.590;2023-03-04T04:56:38;5.50;99.90
16728;DHT22;8482;54.396;18.590;2023-03-04T04:59:04;5.40;99.90
16728;DHT22;8482;54.396;18.590;2023-03-04T05:01:33;5.50;99.90
16728;DHT22;8482;54.396;18.590;2023-03-04T05:03:58;5.50;99.90
16728;DHT22;8482;54.396;18.590;2023-03-04T05:06:25;5.50;99.90
16728;DHT22;8482;54.396;18.590;2023-03-04T05:08:51;5.50;99.90
16728;DHT22;8482;54.396;18.590;2023-03-04T05:11:18;5.50;99.90
16728;DHT22;8482;54.396;18.590;2023-03-04T05:13:44;5.50;99.90
16728;DHT22;8482;54.396;18.590;2023-03-04T05:16:11;5.50;99.90
16728;DHT22;8482;54.396;18.590;2023-03-04T05:18:38;5.50;99.90
16728;DHT22;8482;54.396;18.590;2023-03-04T05:21:04;5.50;99.90
16728;DHT22;8482;54.396;18.590;2023-03-04T05:23:32;5.50;99.90
16728;DHT22;8482;54.396;18.590;2023-03-04T05:26:01;5.50;99.90
16728;DHT22;8482;54.396;18.590;2023-03-04T05:28:27;5.50;99.90
16728;DHT22;8482;54.396;18.590;2023-03-04T05:30:53;5.50;99.90
16728;DHT22;8482;54.396;18.590;2023-03-04T05:33:20;5.50;99.90
16728;DHT22;8482;54.396;18.590;2023-03-04T05:35:46;5.50;99.90
16728;DHT22;8482;54.396;18.590;2023-03-04T05:38:16;5.50;99.90
16728;DHT22;8482;54.396;18.590;2023-03-04T05:40:44;5.60;99.90
16728;DHT22;8482;54.396;18.590;2023-03-04T05:43:11;5.60;99.90
16728;DHT22;8482;54.396;18.590;2023-03-04T05:45:38;5.60;99.90
16728;DHT22;8482;54.396;18.590;2023-03-04T05:48:04;5.60;99.90
16728;DHT22;8482;54.396;18.590;2023-03-04T05:50:32;5.60;99.90
16728;DHT22;8482;54.396;18.590;2023-03-04T05:52:59;5.60;99.90
16728;DHT22;8482;54.396;18.590;2023-03-04T05:55:25;5.60;99.90
16728;DHT22;8482;54.396;18.590;2023-03-04T05:57:53;5.50;99.90
16728;DHT22;8482;54.396;18.590;2023-03-04T06:00:19;5.60;99.90
16728;DHT22;8482;54.396;18.590;2023-03-04T06:02:45;5.60;99.90
16728;DHT22;8482;54.396;18.590;2023-03-04T06:05:13;5.60;99.90
16728;DHT22;8482;54.396;18.590;2023-03-04T06:07:40;5.60;99.90
16728;DHT22;8482;54.396;18.590;2023-03-04T06:10:17;5.60;99.90
16728;DHT22;8482;54.396;18.590;2023-03-04T06:12:43;5.60;99.90
16728;DHT22;8482;54.396;18.590;2023-03-04T06:15:10;5.60;99.90
16728;DHT22;8482;54.396;18.590;2023-03-04T06:17:37;5.60;99.90
16728;DHT22;8482;54.396;18.590;2023-03-04T06:20:05;5.60;99.90
16728;DHT22;8482;54.396;18.590;2023-03-04T06:22:32;5.60;99.90
16728;DHT22;8482;54.396;18.590;2023-03-04T06:24:59;5.60;99.90
16728;DHT22;8482;54.396;18.590;2023-03-04T06:27:25;5.60;99.90
16728;DHT22;8482;54.396;18.590;2023-03-04T06:29:51;5.60;99.90
16728;DHT22;8482;54.396;18.590;2023-03-04T06:32:17;5.60;99.90
16728;DHT22;8482;54.396;18.590;2023-03-04T06:34:43;5.70;99.90
16728;DHT22;8482;54.396;18.590;2023-03-04T06:37:09;5.70;99.90
16728;DHT22;8482;54.396;18.590;2023-03-04T06:39:35;5.60;99.90
16728;DHT22;8482;54.396;18.590;2023-03-04T06:42:01;5.70;99.90
16728;DHT22;8482;54.396;18.590;2023-03-04T06:44:27;5.70;99.90
16728;DHT22;8482;54.396;18.590;2023-03-04T06:46:53;5.70;99.90
16728;DHT22;8482;54.396;18.590;2023-03-04T06:49:18;5.70;99.90
16728;DHT22;8482;54.396;18.590;2023-03-04T06:51:44;5.70;99.90
16728;DHT22;8482;54.396;18.590;2023-03-04T06:54:10;5.70;99.90
16728;DHT22;8482;54.396;18.590;2023-03-04T06:56:36;5.70;99.90
16728;DHT22;8482;54.396;18.590;2023-03-04T06:59:02;5.70;99.90
16728;DHT22;8482;54.396;18.590;2023-03-04T07:01:28;5.70;99.90
16728;DHT22;8482;54.396;18.590;2023-03-04T07:03:55;5.70;99.90
16728;DHT22;8482;54.396;18.590;2023-03-04T07:06:24;5.70;99.90
16728;DHT22;8482;54.396;18.590;2023-03-04T07:08:52;5.70;99.90
16728;DHT22;8482;54.396;18.590;2023-03-04T07:11:19;5.70;99.90
16728;DHT22;8482;54.396;18.590;2023-03-04T07:13:46;5.70;99.90
16728;DHT22;8482;54.396;18.590;2023-03-04T07:16:15;5.80;99.90
16728;DHT22;8482;54.396;18.590;2023-03-04T07:18:44;5.80;99.90
16728;DHT22;8482;54.396;18.590;2023-03-04T07:21:15;5.80;99.90
16728;DHT22;8482;54.396;18.590;2023-03-04T07:23:41;5.80;99.90
16728;DHT22;8482;54.396;18.590;2023-03-04T07:26:07;5.90;99.90
16728;DHT22;8482;54.396;18.590;2023-03-04T07:28:35;5.90;99.90
16728;DHT22;8482;54.396;18.590;2023-03-04T07:31:27;5.90;99.90
16728;DHT22;8482;54.396;18.590;2023-03-04T07:34:08;5.90;99.90
16728;DHT22;8482;54.396;18.590;2023-03-04T07:36:42;5.90;99.90
16728;DHT22;8482;54.396;18.590;2023-03-04T07:39:11;5.90;99.90
16728;DHT22;8482;54.396;18.590;2023-03-04T07:41:39;5.90;99.90
16728;DHT22;8482;54.396;18.590;2023-03-04T07:44:12;5.90;99.90
16728;DHT22;8482;54.396;18.590;2023-03-04T07:46:50;6.00;99.90
16728;DHT22;8482;54.396;18.590;2023-03-04T07:49:15;5.90;99.90
16728;DHT22;8482;54.396;18.590;2023-03-04T07:51:47;6.00;99.90
16728;DHT22;8482;54.396;18.590;2023-03-04T07:54:13;6.00;99.90
16728;DHT22;8482;54.396;18.590;2023-03-04T07:56:47;6.00;99.90
16728;DHT22;8482;54.396;18.590;2023-03-04T07:59:13;6.00;99.90
16728;DHT22;8482;54.396;18.590;2023-03-04T08:01:38;6.00;99.90
16728;DHT22;8482;54.396;18.590;2023-03-04T08:04:05;6.00;99.90
16728;DHT22;8482;54.396;18.590;2023-03-04T08:06:33;6.10;99.90
16728;DHT22;8482;54.396;18.590;2023-03-04T08:09:02;6.10;99.30
16728;DHT22;8482;54.396;18.590;2023-03-04T08:11:38;6.00;98.00
16728;DHT22;8482;54.396;18.590;2023-03-04T08:14:11;6.00;96.70
16728;DHT22;8482;54.396;18.590;2023-03-04T08:16:40;6.00;96.00
16728;DHT22;8482;54.396;18.590;2023-03-04T08:19:06;6.00;95.20
16728;DHT22;8482;54.396;18.590;2023-03-04T08:21:32;6.00;94.20
16728;DHT22;8482;54.396;18.590;2023-03-04T08:24:00;6.00;93.10
16728;DHT22;8482;54.396;18.590;2023-03-04T08:26:35;6.00;92.70
16728;DHT22;8482;54.396;18.590;2023-03-04T08:29:04;6.00;92.00
16728;DHT22;8482;54.396;18.590;2023-03-04T08:31:31;6.00;91.10
16728;DHT22;8482;54.396;18.590;2023-03-04T08:33:57;5.90;90.60
16728;DHT22;8482;54.396;18.590;2023-03-04T08:36:23;6.00;90.50
16728;DHT22;8482;54.396;18.590;2023-03-04T08:38:49;6.00;90.20
16728;DHT22;8482;54.396;18.590;2023-03-04T08:41:18;6.00;90.00
16728;DHT22;8482;54.396;18.590;2023-03-04T08:43:44;6.00;89.90
16728;DHT22;8482;54.396;18.590;2023-03-04T08:46:10;6.00;88.40
16728;DHT22;8482;54.396;18.590;2023-03-04T08:48:37;6.00;86.90
16728;DHT22;8482;54.396;18.590;2023-03-04T08:51:08;6.00;86.50
16728;DHT22;8482;54.396;18.590;2023-03-04T08:53:37;6.00;85.60
16728;DHT22;8482;54.396;18.590;2023-03-04T08:56:04;6.00;84.70
16728;DHT22;8482;54.396;18.590;2023-03-04T08:58:31;6.00;84.80
16728;DHT22;8482;54.396;18.590;2023-03-04T09:00:58;6.10;84.80
16728;DHT22;8482;54.396;18.590;2023-03-04T09:03:26;6.10;84.80
16728;DHT22;8482;54.396;18.590;2023-03-04T09:05:52;6.10;84.50
16728;DHT22;8482;54.396;18.590;2023-03-04T09:08:18;6.10;82.60
16728;DHT22;8482;54.396;18.590;2023-03-04T09:10:45;6.10;80.50
16728;DHT22;8482;54.396;18.590;2023-03-04T09:13:12;6.00;79.20
16728;DHT22;8482;54.396;18.590;2023-03-04T09:15:46;6.00;79.40
16728;DHT22;8482;54.396;18.590;2023-03-04T09:18:16;6.00;79.30
16728;DHT22;8482;54.396;18.590;2023-03-04T09:20:44;6.00;78.60
16728;DHT22;8482;54.396;18.590;2023-03-04T09:23:11;6.00;78.00
16728;DHT22;8482;54.396;18.590;2023-03-04T09:25:38;6.00;78.40
16728;DHT22;8482;54.396;18.590;2023-03-04T09:28:05;6.00;77.70
16728;DHT22;8482;54.396;18.590;2023-03-04T09:30:33;5.90;74.90
16728;DHT22;8482;54.396;18.590;2023-03-04T09:32:59;5.90;73.80
16728;DHT22;8482;54.396;18.590;2023-03-04T09:35:25;5.90;73.00
16728;DHT22;8482;54.396;18.590;2023-03-04T09:37:52;5.80;72.80
16728;DHT22;8482;54.396;18.590;2023-03-04T09:40:32;5.80;72.60
16728;DHT22;8482;54.396;18.590;2023-03-04T09:43:06;5.80;72.00
16728;DHT22;8482;54.396;18.590;2023-03-04T09:45:44;5.80;72.30
16728;DHT22;8482;54.396;18.590;2023-03-04T09:48:17;5.80;72.80
16728;DHT22;8482;54.396;18.590;2023-03-04T09:51:05;5.80;73.40
16728;DHT22;8482;54.396;18.590;2023-03-04T09:56:36;5.90;74.20
16728;DHT22;8482;54.396;18.590;2023-03-04T10:01:44;5.90;73.90
16728;DHT22;8482;54.396;18.590;2023-03-04T10:07:08;6.00;73.50
16728;DHT22;8482;54.396;18.590;2023-03-04T10:09:50;6.00;72.60
16728;DHT22;8482;54.396;18.590;2023-03-04T10:21:22;6.00;72.60
16728;DHT22;8482;54.396;18.590;2023-03-04T10:23:56;6.10;72.90
16728;DHT22;8482;54.396;18.590;2023-03-04T10:26:23;6.10;72.20
16728;DHT22;8482;54.396;18.590;2023-03-04T10:28:57;6.10;70.50
16728;DHT22;8482;54.396;18.590;2023-03-04T10:31:35;6.10;69.00
16728;DHT22;8482;54.396;18.590;2023-03-04T10:34:05;6.10;69.10
16728;DHT22;8482;54.396;18.590;2023-03-04T10:36:33;6.20;69.00
16728;DHT22;8482;54.396;18.590;2023-03-04T10:39:39;6.20;69.30
16728;DHT22;8482;54.396;18.590;2023-03-04T10:42:23;6.20;68.90
16728;DHT22;8482;54.396;18.590;2023-03-04T10:44:57;6.20;68.80
16728;DHT22;8482;54.396;18.590;2023-03-04T10:47:30;6.20;69.20
16728;DHT22;8482;54.396;18.590;2023-03-04T10:50:01;6.20;69.40
16728;DHT22;8482;54.396;18.590;2023-03-04T10:52:34;6.10;69.10
16728;DHT22;8482;54.396;18.590;2023-03-04T10:55:25;6.10;68.50
16728;DHT22;8482;54.396;18.590;2023-03-04T10:57:55;6.10;67.30
16728;DHT22;8482;54.396;18.590;2023-03-04T11:00:32;6.20;66.80
16728;DHT22;8482;54.396;18.590;2023-03-04T11:06:04;6.10;64.70
16728;DHT22;8482;54.396;18.590;2023-03-04T11:08:30;6.10;63.90
16728;DHT22;8482;54.396;18.590;2023-03-04T11:10:56;6.10;62.40
16728;DHT22;8482;54.396;18.590;2023-03-04T11:13:24;6.00;60.60
16728;DHT22;8482;54.396;18.590;2023-03-04T11:16:03;6.00;60.70
16728;DHT22;8482;54.396;18.590;2023-03-04T11:18:51;6.00;60.30
16728;DHT22;8482;54.396;18.590;2023-03-04T11:21:27;6.00;60.60
16728;DHT22;8482;54.396;18.590;2023-03-04T11:24:09;6.00;60.80
16728;DHT22;8482;54.396;18.590;2023-03-04T11:26:44;6.00;60.20
16728;DHT22;8482;54.396;18.590;2023-03-04T11:29:21;6.10;60.50
16728;DHT22;8482;54.396;18.590;2023-03-04T11:40:35;6.20;61.10
16728;DHT22;8482;54.396;18.590;2023-03-04T12:00:50;6.20;57.50
16728;DHT22;8482;54.396;18.590;2023-03-04T12:16:20;6.40;56.10
16728;DHT22;8482;54.396;18.590;2023-03-04T12:19:07;6.50;55.90
16728;DHT22;8482;54.396;18.590;2023-03-04T12:25:34;6.40;55.00
16728;DHT22;8482;54.396;18.590;2023-03-04T12:28:30;6.30;54.70
16728;DHT22;8482;54.396;18.590;2023-03-04T12:45:56;7.10;55.80
16728;DHT22;8482;54.396;18.590;2023-03-04T12:57:18;6.70;55.30
16728;DHT22;8482;54.396;18.590;2023-03-04T12:59:59;6.60;55.40
16728;DHT22;8482;54.396;18.590;2023-03-04T13:08:50;6.20;55.20
16728;DHT22;8482;54.396;18.590;2023-03-04T13:16:45;5.70;53.30
16728;DHT22;8482;54.396;18.590;2023-03-04T13:24:55;5.70;54.30
16728;DHT22;8482;54.396;18.590;2023-03-04T13:27:45;5.90;54.00
16728;DHT22;8482;54.396;18.590;2023-03-04T13:35:59;7.30;53.00
16728;DHT22;8482;54.396;18.590;2023-03-04T13:39:00;8.00;52.40
16728;DHT22;8482;54.396;18.590;2023-03-04T13:41:52;8.90;51.60
16728;DHT22;8482;54.396;18.590;2023-03-04T13:47:16;11.00;47.70
16728;DHT22;8482;54.396;18.590;2023-03-04T13:49:44;11.30;46.40
16728;DHT22;8482;54.396;18.590;2023-03-04T13:52:37;11.40;45.80
16728;DHT22;8482;54.396;18.590;2023-03-04T13:58:21;10.60;46.20
16728;DHT22;8482;54.396;18.590;2023-03-04T14:00:53;10.00;47.50
16728;DHT22;8482;54.396;18.590;2023-03-04T14:03:22;9.40;48.60
16728;DHT22;8482;54.396;18.590;2023-03-04T14:06:12;8.90;50.00
16728;DHT22;8482;54.396;18.590;2023-03-04T14:08:45;8.40;51.40
16728;DHT22;8482;54.396;18.590;2023-03-04T14:14:05;7.60;53.60
16728;DHT22;8482;54.396;18.590;2023-03-04T14:16:44;7.30;54.60
16728;DHT22;8482;54.396;18.590;2023-03-04T14:19:18;7.00;55.80
16728;DHT22;8482;54.396;18.590;2023-03-04T14:21:50;7.10;57.40
16728;DHT22;8482;54.396;18.590;2023-03-04T14:24:18;7.00;58.10
16728;DHT22;8482;54.396;18.590;2023-03-04T14:26:45;6.80;59.00
16728;DHT22;8482;54.396;18.590;2023-03-04T14:29:21;6.60;60.00
16728;DHT22;8482;54.396;18.590;2023-03-04T14:31:53;6.70;61.00
16728;DHT22;8482;54.396;18.590;2023-03-04T14:34:36;6.90;60.90
16728;DHT22;8482;54.396;18.590;2023-03-04T14:37:22;7.70;61.60
16728;DHT22;8482;54.396;18.590;2023-03-04T14:39:55;8.10;59.40
16728;DHT22;8482;54.396;18.590;2023-03-04T14:42:29;8.10;58.30
16728;DHT22;8482;54.396;18.590;2023-03-04T14:45:04;7.90;57.50
16728;DHT22;8482;54.396;18.590;2023-03-04T14:47:35;7.60;56.70
16728;DHT22;8482;54.396;18.590;2023-03-04T14:50:10;7.20;56.70
16728;DHT22;8482;54.396;18.590;2023-03-04T14:52:41;6.90;56.70
16728;DHT22;8482;54.396;18.590;2023-03-04T14:55:26;6.60;56.80
16728;DHT22;8482;54.396;18.590;2023-03-04T14:58:04;6.30;56.90
16728;DHT22;8482;54.396;18.590;2023-03-04T15:00:36;6.10;57.20
16728;DHT22;8482;54.396;18.590;2023-03-04T15:03:21;5.90;57.10
16728;DHT22;8482;54.396;18.590;2023-03-04T15:05:53;6.00;57.40
16728;DHT22;8482;54.396;18.590;2023-03-04T15:08:34;6.20;57.10
16728;DHT22;8482;54.396;18.590;2023-03-04T15:11:05;6.50;57.10
16728;DHT22;8482;54.396;18.590;2023-03-04T15:16:04;7.20;56.20
16728;DHT22;8482;54.396;18.590;2023-03-04T15:18:31;7.40;55.60
16728;DHT22;8482;54.396;18.590;2023-03-04T15:23:27;7.20;54.80
16728;DHT22;8482;54.396;18.590;2023-03-04T15:26:03;7.00;54.80
16728;DHT22;8482;54.396;18.590;2023-03-04T15:28:33;6.80;55.10
16728;DHT22;8482;54.396;18.590;2023-03-04T15:31:02;6.50;54.90
16728;DHT22;8482;54.396;18.590;2023-03-04T15:33:29;6.30;54.70
16728;DHT22;8482;54.396;18.590;2023-03-04T15:36:00;6.10;54.10
16728;DHT22;8482;54.396;18.590;2023-03-04T15:38:28;5.90;54.30
16728;DHT22;8482;54.396;18.590;2023-03-04T15:40:55;5.60;54.60
16728;DHT22;8482;54.396;18.590;2023-03-04T15:43:23;5.50;54.90
16728;DHT22;8482;54.396;18.590;2023-03-04T15:45:51;5.30;55.50
16728;DHT22;8482;54.396;18.590;2023-03-04T15:48:17;5.20;55.90
16728;DHT22;8482;54.396;18.590;2023-03-04T15:50:58;5.00;55.70
16728;DHT22;8482;54.396;18.590;2023-03-04T15:53:37;4.90;55.90
16728;DHT22;8482;54.396;18.590;2023-03-04T15:56:18;4.80;55.50
16728;DHT22;8482;54.396;18.590;2023-03-04T15:58:51;4.70;55.40
16728;DHT22;8482;54.396;18.590;2023-03-04T16:01:19;4.60;55.90
16728;DHT22;8482;54.396;18.590;2023-03-04T16:03:49;4.50;56.50
16728;DHT22;8482;54.396;18.590;2023-03-04T16:06:16;4.40;56.70
16728;DHT22;8482;54.396;18.590;2023-03-04T16:08:46;4.40;57.00
16728;DHT22;8482;54.396;18.590;2023-03-04T16:11:27;4.30;57.40
16728;DHT22;8482;54.396;18.590;2023-03-04T16:13:57;4.30;57.70
16728;DHT22;8482;54.396;18.590;2023-03-04T16:16:23;4.30;58.00
16728;DHT22;8482;54.396;18.590;2023-03-04T16:18:49;4.20;58.10
16728;DHT22;8482;54.396;18.590;2023-03-04T16:21:17;4.10;58.00
16728;DHT22;8482;54.396;18.590;2023-03-04T16:23:47;4.10;57.90
16728;DHT22;8482;54.396;18.590;2023-03-04T16:26:20;4.00;58.00
16728;DHT22;8482;54.396;18.590;2023-03-04T16:28:48;4.00;58.30
16728;DHT22;8482;54.396;18.590;2023-03-04T16:31:15;4.00;58.20
16728;DHT22;8482;54.396;18.590;2023-03-04T16:33:42;3.90;58.10
16728;DHT22;8482;54.396;18.590;2023-03-04T16:36:22;3.90;58.10
16728;DHT22;8482;54.396;18.590;2023-03-04T16:38:51;3.80;58.20
16728;DHT22;8482;54.396;18.590;2023-03-04T16:41:24;3.80;58.40
16728;DHT22;8482;54.396;18.590;2023-03-04T16:43:53;3.80;58.40
16728;DHT22;8482;54.396;18.590;2023-03-04T16:46:19;3.70;58.80
16728;DHT22;8482;54.396;18.590;2023-03-04T16:48:46;3.70;58.90
16728;DHT22;8482;54.396;18.590;2023-03-04T16:51:18;3.60;59.30
16728;DHT22;8482;54.396;18.590;2023-03-04T16:53:54;3.60;59.40
16728;DHT22;8482;54.396;18.590;2023-03-04T16:56:24;3.60;59.60
16728;DHT22;8482;54.396;18.590;2023-03-04T16:58:51;3.60;59.50
16728;DHT22;8482;54.396;18.590;2023-03-04T17:01:25;3.60;59.30
16728;DHT22;8482;54.396;18.590;2023-03-04T17:03:54;3.50;59.40
16728;DHT22;8482;54.396;18.590;2023-03-04T17:06:22;3.50;59.50
16728;DHT22;8482;54.396;18.590;2023-03-04T17:08:48;3.40;59.70
16728;DHT22;8482;54.396;18.590;2023-03-04T17:11:18;3.40;59.60
16728;DHT22;8482;54.396;18.590;2023-03-04T17:13:45;3.30;59.50
16728;DHT22;8482;54.396;18.590;2023-03-04T17:16:12;3.30;59.80
16728;DHT22;8482;54.396;18.590;2023-03-04T17:18:40;3.30;60.00
16728;DHT22;8482;54.396;18.590;2023-03-04T17:21:11;3.30;60.10
16728;DHT22;8482;54.396;18.590;2023-03-04T17:23:40;3.20;60.50
16728;DHT22;8482;54.396;18.590;2023-03-04T17:26:07;3.30;60.70
16728;DHT22;8482;54.396;18.590;2023-03-04T17:28:34;3.20;60.70
16728;DHT22;8482;54.396;18.590;2023-03-04T17:31:00;3.20;60.60
16728;DHT22;8482;54.396;18.590;2023-03-04T17:33:33;3.20;60.60
16728;DHT22;8482;54.396;18.590;2023-03-04T17:35:59;3.10;60.90
16728;DHT22;8482;54.396;18.590;2023-03-04T17:38:25;3.10;61.10
16728;DHT22;8482;54.396;18.590;2023-03-04T17:40:51;3.10;61.30
16728;DHT22;8482;54.396;18.590;2023-03-04T17:43:18;3.10;61.50
16728;DHT22;8482;54.396;18.590;2023-03-04T17:45:44;3.10;61.80
16728;DHT22;8482;54.396;18.590;2023-03-04T17:48:11;3.00;62.20
16728;DHT22;8482;54.396;18.590;2023-03-04T17:50:52;3.00;62.50
16728;DHT22;8482;54.396;18.590;2023-03-04T17:53:18;3.00;62.90
16728;DHT22;8482;54.396;18.590;2023-03-04T17:55:50;3.00;63.00
16728;DHT22;8482;54.396;18.590;2023-03-04T17:58:16;3.00;63.10
16728;DHT22;8482;54.396;18.590;2023-03-04T18:00:43;3.00;63.60
16728;DHT22;8482;54.396;18.590;2023-03-04T18:03:11;3.00;64.00
16728;DHT22;8482;54.396;18.590;2023-03-04T18:05:39;3.00;64.90